BAW1401 EGAC-EGLL
Flight info
| Callsign | BAW1401 |
|---|---|
| Flight time | 0h 52m |
| Altitude | 33000 |
| Route | DUFFY L10 RINGA Q39 BABGU DCT ETIGA DCT INKOB Q39 NOMSU UQ4 WAL UY53 NUGRA |
| Aircraft | A20N/M-SDE2E3FGHIRWXY/LB1 |
Departure
| Time | 2026-05-06 15:17 |
|---|---|
| Airport | George Best Belfast City Airport (EGAC) |
Arrival
| Time | 2026-05-06 16:09 |
|---|---|
| Airport | London Heathrow Airport (EGLL) |
| Time | Latitude | Longitude | Altitude | Speed | Heading |
|---|---|---|---|---|---|
| 2026-05-06 14:56 | 54.61471 | -5.87195 | 22 ft | 0 kts | 157° |
| 2026-05-06 15:09 | 54.61479 | -5.87201 | 20 ft | 2 kts | 153° |
| 2026-05-06 15:09 | 54.61493 | -5.87214 | 24 ft | 2 kts | 146° |
| 2026-05-06 15:10 | 54.61504 | -5.87232 | 24 ft | 2 kts | 102° |
| 2026-05-06 15:10 | 54.61505 | -5.87245 | 24 ft | 2 kts | 67° |
| 2026-05-06 15:10 | 54.61499 | -5.87261 | 23 ft | 2 kts | 41° |
| 2026-05-06 15:10 | 54.61494 | -5.87268 | 23 ft | 0 kts | 33° |
| 2026-05-06 15:12 | 54.61497 | -5.87265 | 23 ft | 2 kts | 33° |
| 2026-05-06 15:12 | 54.61520 | -5.87238 | 24 ft | 6 kts | 33° |
| 2026-05-06 15:13 | 54.61564 | -5.87186 | 20 ft | 10 kts | 34° |
| 2026-05-06 15:13 | 54.61638 | -5.87095 | 20 ft | 16 kts | 34° |
| 2026-05-06 15:13 | 54.61736 | -5.86991 | 20 ft | 17 kts | 8° |
| 2026-05-06 15:13 | 54.61800 | -5.87098 | 22 ft | 16 kts | 305° |
| 2026-05-06 15:14 | 54.61903 | -5.87143 | 21 ft | 19 kts | 33° |
| 2026-05-06 15:14 | 54.62038 | -5.86982 | 20 ft | 28 kts | 34° |
| 2026-05-06 15:14 | 54.62215 | -5.86766 | 21 ft | 33 kts | 36° |
| 2026-05-06 15:14 | 54.62403 | -5.86548 | 22 ft | 24 kts | 34° |
| 2026-05-06 15:15 | 54.62435 | -5.86530 | 21 ft | 4 kts | 355° |
| 2026-05-06 15:15 | 54.62471 | -5.86519 | 23 ft | 6 kts | 49° |
| 2026-05-06 15:15 | 54.62469 | -5.86474 | 21 ft | 0 kts | 143° |
| 2026-05-06 15:15 | 54.62449 | -5.86487 | 21 ft | 6 kts | 212° |
| 2026-05-06 15:16 | 54.62409 | -5.86536 | 22 ft | 9 kts | 213° |
| 2026-05-06 15:16 | 54.62258 | -5.86714 | 21 ft | 62 kts | 216° |
| 2026-05-06 15:16 | 54.61697 | -5.87384 | 21 ft | 132 kts | 214° |
| 2026-05-06 15:16 | 54.60857 | -5.88364 | 467 ft | 149 kts | 210° |
| 2026-05-06 15:17 | 54.59975 | -5.89400 | 1167 ft | 157 kts | 210° |
| 2026-05-06 15:17 | 54.59064 | -5.90478 | 1966 ft | 161 kts | 209° |
| 2026-05-06 15:17 | 54.58088 | -5.91623 | 2580 ft | 180 kts | 211° |
| 2026-05-06 15:17 | 54.56999 | -5.92909 | 3147 ft | 201 kts | 211° |
| 2026-05-06 15:18 | 54.55784 | -5.94339 | 3763 ft | 222 kts | 210° |
| 2026-05-06 15:18 | 54.54298 | -5.95242 | 4428 ft | 239 kts | 182° |
| 2026-05-06 15:18 | 54.52629 | -5.94649 | 5160 ft | 252 kts | 152° |
| 2026-05-06 15:18 | 54.51312 | -5.92616 | 6092 ft | 264 kts | 125° |
| 2026-05-06 15:19 | 54.50460 | -5.89749 | 6940 ft | 272 kts | 115° |
| 2026-05-06 15:19 | 54.49725 | -5.86700 | 7779 ft | 280 kts | 115° |
| 2026-05-06 15:19 | 54.48902 | -5.83602 | 8268 ft | 289 kts | 118° |
| 2026-05-06 15:19 | 54.47968 | -5.80536 | 8526 ft | 290 kts | 121° |
| 2026-05-06 15:20 | 54.46954 | -5.77479 | 9182 ft | 297 kts | 123° |
| 2026-05-06 15:20 | 54.45899 | -5.74420 | 10188 ft | 297 kts | 123° |
| 2026-05-06 15:20 | 54.44811 | -5.71301 | 10758 ft | 315 kts | 123° |
| 2026-05-06 15:20 | 54.43652 | -5.67994 | 11089 ft | 337 kts | 122° |
| 2026-05-06 15:21 | 54.42418 | -5.64459 | 11597 ft | 351 kts | 122° |
| 2026-05-06 15:21 | 54.41150 | -5.60819 | 12369 ft | 357 kts | 122° |
| 2026-05-06 15:21 | 54.39863 | -5.57148 | 13213 ft | 361 kts | 124° |
| 2026-05-06 15:21 | 54.38433 | -5.53585 | 13987 ft | 366 kts | 127° |
| 2026-05-06 15:22 | 54.36971 | -5.49987 | 14746 ft | 368 kts | 126° |
| 2026-05-06 15:22 | 54.35499 | -5.46357 | 15468 ft | 373 kts | 126° |
| 2026-05-06 15:22 | 54.34007 | -5.42680 | 16181 ft | 377 kts | 126° |
| 2026-05-06 15:22 | 54.32497 | -5.38966 | 16877 ft | 382 kts | 126° |
| 2026-05-06 15:23 | 54.30971 | -5.35217 | 17566 ft | 386 kts | 126° |
| 2026-05-06 15:23 | 54.29424 | -5.31428 | 18257 ft | 390 kts | 126° |
| 2026-05-06 15:23 | 54.27853 | -5.27603 | 18858 ft | 394 kts | 128° |
| 2026-05-06 15:23 | 54.26129 | -5.23943 | 19455 ft | 397 kts | 131° |
| 2026-05-06 15:24 | 54.24381 | -5.20315 | 20037 ft | 401 kts | 130° |
| 2026-05-06 15:24 | 54.22597 | -5.16607 | 20627 ft | 405 kts | 130° |
| 2026-05-06 15:24 | 54.20799 | -5.12871 | 21205 ft | 409 kts | 130° |
| 2026-05-06 15:24 | 54.18984 | -5.09105 | 21781 ft | 413 kts | 130° |
| 2026-05-06 15:25 | 54.17147 | -5.05298 | 22353 ft | 417 kts | 130° |
| 2026-05-06 15:25 | 54.15293 | -5.01463 | 22912 ft | 421 kts | 130° |
| 2026-05-06 15:25 | 54.13423 | -4.97601 | 23460 ft | 424 kts | 130° |
| 2026-05-06 15:25 | 54.11533 | -4.93705 | 23952 ft | 428 kts | 130° |
| 2026-05-06 15:26 | 54.09630 | -4.89787 | 24445 ft | 430 kts | 130° |
| 2026-05-06 15:26 | 54.07713 | -4.85846 | 24915 ft | 433 kts | 129° |
| 2026-05-06 15:26 | 54.05780 | -4.81878 | 25377 ft | 436 kts | 129° |
| 2026-05-06 15:26 | 54.03859 | -4.77934 | 25824 ft | 439 kts | 129° |
| 2026-05-06 15:27 | 54.01973 | -4.73825 | 26281 ft | 442 kts | 127° |
| 2026-05-06 15:27 | 54.00128 | -4.69624 | 26718 ft | 444 kts | 126° |
| 2026-05-06 15:27 | 53.98277 | -4.65393 | 27157 ft | 447 kts | 126° |
| 2026-05-06 15:27 | 53.96408 | -4.61152 | 27571 ft | 450 kts | 127° |
| 2026-05-06 15:28 | 53.94516 | -4.56895 | 27967 ft | 453 kts | 127° |
| 2026-05-06 15:28 | 53.92601 | -4.52614 | 28350 ft | 456 kts | 127° |
| 2026-05-06 15:28 | 53.90679 | -4.48331 | 28724 ft | 458 kts | 127° |
| 2026-05-06 15:28 | 53.88743 | -4.44026 | 29157 ft | 459 kts | 127° |
| 2026-05-06 15:29 | 53.86799 | -4.39714 | 29474 ft | 462 kts | 127° |
| 2026-05-06 15:29 | 53.84913 | -4.35295 | 29822 ft | 464 kts | 124° |
| 2026-05-06 15:29 | 53.83084 | -4.30764 | 30158 ft | 467 kts | 123° |
| 2026-05-06 15:29 | 53.81258 | -4.26200 | 30460 ft | 469 kts | 123° |
| 2026-05-06 15:30 | 53.79431 | -4.21669 | 30758 ft | 471 kts | 124° |
| 2026-05-06 15:30 | 53.77568 | -4.17090 | 31069 ft | 473 kts | 124° |
| 2026-05-06 15:30 | 53.75688 | -4.12509 | 31458 ft | 473 kts | 124° |
| 2026-05-06 15:30 | 53.73812 | -4.07952 | 31857 ft | 472 kts | 124° |
| 2026-05-06 15:31 | 53.71935 | -4.03402 | 32247 ft | 472 kts | 124° |
| 2026-05-06 15:31 | 53.70055 | -3.98854 | 32638 ft | 471 kts | 124° |
| 2026-05-06 15:31 | 53.68176 | -3.94316 | 32875 ft | 471 kts | 124° |
| 2026-05-06 15:32 | 53.64437 | -3.85325 | 33018 ft | 467 kts | 125° |
| 2026-05-06 15:32 | 53.62553 | -3.80814 | 33019 ft | 474 kts | 125° |
| 2026-05-06 15:32 | 53.58699 | -3.71601 | 33023 ft | 485 kts | 125° |
| 2026-05-06 15:33 | 53.54805 | -3.62324 | 32747 ft | 485 kts | 125° |
| 2026-05-06 15:33 | 53.52859 | -3.57703 | 32341 ft | 483 kts | 126° |
| 2026-05-06 15:33 | 53.50942 | -3.53159 | 32096 ft | 484 kts | 126° |
| 2026-05-06 15:34 | 53.47118 | -3.43761 | 32398 ft | 487 kts | 120° |
| 2026-05-06 15:34 | 53.44262 | -3.33472 | 32045 ft | 484 kts | 112° |
| 2026-05-06 15:35 | 53.41652 | -3.23095 | 32042 ft | 486 kts | 113° |
| 2026-05-06 15:35 | 53.38769 | -3.12855 | 32037 ft | 486 kts | 121° |
| 2026-05-06 15:36 | 53.34850 | -3.03640 | 32017 ft | 485 kts | 128° |
| 2026-05-06 15:36 | 53.30814 | -2.94604 | 31909 ft | 482 kts | 128° |
| 2026-05-06 15:37 | 53.28810 | -2.90112 | 31427 ft | 480 kts | 128° |
| 2026-05-06 15:37 | 53.26806 | -2.85634 | 31299 ft | 484 kts | 128° |
| 2026-05-06 15:37 | 53.22752 | -2.76601 | 31098 ft | 486 kts | 128° |
| 2026-05-06 15:38 | 53.18689 | -2.67588 | 31016 ft | 485 kts | 128° |
| 2026-05-06 15:38 | 53.14620 | -2.58606 | 31020 ft | 485 kts | 128° |
| 2026-05-06 15:39 | 53.10668 | -2.49463 | 31021 ft | 486 kts | 126° |
| 2026-05-06 15:39 | 53.06942 | -2.40167 | 31027 ft | 486 kts | 125° |
| 2026-05-06 15:40 | 53.02804 | -2.31339 | 31028 ft | 483 kts | 137° |
| 2026-05-06 15:40 | 52.97513 | -2.24606 | 31020 ft | 478 kts | 150° |
| 2026-05-06 15:41 | 52.91881 | -2.18741 | 31034 ft | 478 kts | 150° |
| 2026-05-06 15:41 | 52.86257 | -2.12869 | 31035 ft | 478 kts | 150° |
| 2026-05-06 15:42 | 52.80628 | -2.07005 | 31038 ft | 478 kts | 150° |
| 2026-05-06 15:42 | 52.77853 | -2.04117 | 31036 ft | 467 kts | 150° |
| 2026-05-06 15:42 | 52.75139 | -2.01296 | 31038 ft | 457 kts | 150° |
| 2026-05-06 15:43 | 52.72437 | -1.98496 | 30893 ft | 459 kts | 151° |
| 2026-05-06 15:43 | 52.69767 | -1.95737 | 30642 ft | 459 kts | 151° |
| 2026-05-06 15:43 | 52.67030 | -1.92910 | 30102 ft | 458 kts | 151° |
| 2026-05-06 15:43 | 52.64364 | -1.90160 | 29405 ft | 456 kts | 151° |
| 2026-05-06 15:44 | 52.61700 | -1.87415 | 28920 ft | 447 kts | 151° |
| 2026-05-06 15:44 | 52.59084 | -1.84723 | 28346 ft | 441 kts | 150° |
| 2026-05-06 15:44 | 52.56493 | -1.82062 | 27809 ft | 435 kts | 150° |
| 2026-05-06 15:44 | 52.53936 | -1.79441 | 27230 ft | 430 kts | 150° |
| 2026-05-06 15:45 | 52.51408 | -1.76854 | 26703 ft | 425 kts | 150° |
| 2026-05-06 15:45 | 52.48894 | -1.74285 | 26119 ft | 424 kts | 150° |
| 2026-05-06 15:45 | 52.46391 | -1.71732 | 25661 ft | 422 kts | 150° |
| 2026-05-06 15:45 | 52.43929 | -1.69223 | 25024 ft | 423 kts | 150° |
| 2026-05-06 15:46 | 52.41431 | -1.66679 | 24511 ft | 419 kts | 150° |
| 2026-05-06 15:46 | 52.38972 | -1.64177 | 23985 ft | 415 kts | 150° |
| 2026-05-06 15:46 | 52.36508 | -1.61675 | 23243 ft | 416 kts | 150° |
| 2026-05-06 15:46 | 52.34059 | -1.59191 | 22714 ft | 410 kts | 150° |
| 2026-05-06 15:47 | 52.31661 | -1.56760 | 22386 ft | 402 kts | 150° |
| 2026-05-06 15:47 | 52.29280 | -1.54351 | 21858 ft | 400 kts | 150° |
| 2026-05-06 15:47 | 52.26940 | -1.51986 | 21167 ft | 401 kts | 150° |
| 2026-05-06 15:47 | 52.24582 | -1.49607 | 20725 ft | 395 kts | 150° |
| 2026-05-06 15:48 | 52.22254 | -1.47237 | 20349 ft | 391 kts | 148° |
| 2026-05-06 15:48 | 52.20088 | -1.44534 | 19947 ft | 394 kts | 141° |
| 2026-05-06 15:48 | 52.17999 | -1.41600 | 19322 ft | 396 kts | 140° |
| 2026-05-06 15:48 | 52.15925 | -1.38676 | 18884 ft | 390 kts | 140° |
| 2026-05-06 15:49 | 52.13880 | -1.35802 | 18610 ft | 387 kts | 140° |
| 2026-05-06 15:49 | 52.11864 | -1.32982 | 18196 ft | 387 kts | 140° |
| 2026-05-06 15:49 | 52.09827 | -1.30141 | 17639 ft | 385 kts | 140° |
| 2026-05-06 15:49 | 52.07809 | -1.27333 | 17342 ft | 379 kts | 140° |
| 2026-05-06 15:50 | 52.05801 | -1.24544 | 17063 ft | 381 kts | 140° |
| 2026-05-06 15:50 | 52.03776 | -1.21736 | 16596 ft | 382 kts | 140° |
| 2026-05-06 15:50 | 52.01759 | -1.18940 | 16037 ft | 380 kts | 140° |
| 2026-05-06 15:50 | 51.99771 | -1.16190 | 15779 ft | 372 kts | 140° |
| 2026-05-06 15:51 | 51.97828 | -1.13503 | 15679 ft | 361 kts | 140° |
| 2026-05-06 15:51 | 51.95956 | -1.10918 | 15520 ft | 344 kts | 140° |
| 2026-05-06 15:51 | 51.94180 | -1.08468 | 15349 ft | 326 kts | 140° |
| 2026-05-06 15:51 | 51.92493 | -1.06144 | 15181 ft | 308 kts | 140° |
| 2026-05-06 15:52 | 51.90896 | -1.03947 | 14910 ft | 296 kts | 140° |
| 2026-05-06 15:52 | 51.89362 | -1.01841 | 14455 ft | 292 kts | 140° |
| 2026-05-06 15:52 | 51.87829 | -0.99740 | 14028 ft | 286 kts | 140° |
| 2026-05-06 15:52 | 51.86317 | -0.97654 | 13526 ft | 283 kts | 137° |
| 2026-05-06 15:53 | 51.85029 | -0.95252 | 12966 ft | 282 kts | 122° |
| 2026-05-06 15:53 | 51.84121 | -0.92488 | 12483 ft | 278 kts | 115° |
| 2026-05-06 15:53 | 51.83280 | -0.89684 | 11982 ft | 275 kts | 115° |
| 2026-05-06 15:53 | 51.82723 | -0.87848 | 11611 ft | 275 kts | 115° |
| 2026-05-06 15:54 | 51.81873 | -0.85062 | 11125 ft | 272 kts | 115° |
| 2026-05-06 15:54 | 51.81042 | -0.82351 | 10682 ft | 269 kts | 114° |
| 2026-05-06 15:54 | 51.80225 | -0.79685 | 10339 ft | 261 kts | 115° |
| 2026-05-06 15:54 | 51.79416 | -0.77049 | 9966 ft | 264 kts | 115° |
| 2026-05-06 15:55 | 51.78599 | -0.74391 | 9738 ft | 265 kts | 115° |
| 2026-05-06 15:55 | 51.77777 | -0.71714 | 9417 ft | 265 kts | 115° |
| 2026-05-06 15:55 | 51.76962 | -0.69066 | 9107 ft | 262 kts | 115° |
| 2026-05-06 15:55 | 51.76158 | -0.66454 | 8770 ft | 261 kts | 115° |
| 2026-05-06 15:56 | 51.75356 | -0.63850 | 8506 ft | 255 kts | 115° |
| 2026-05-06 15:56 | 51.74568 | -0.61299 | 8185 ft | 254 kts | 115° |
| 2026-05-06 15:56 | 51.73791 | -0.58788 | 8075 ft | 250 kts | 115° |
| 2026-05-06 15:56 | 51.72883 | -0.56328 | 8031 ft | 261 kts | 132° |
| 2026-05-06 15:57 | 51.71412 | -0.54727 | 8030 ft | 260 kts | 162° |
| 2026-05-06 15:57 | 51.69635 | -0.54267 | 7995 ft | 260 kts | 179° |
| 2026-05-06 15:57 | 51.67855 | -0.54526 | 7993 ft | 254 kts | 201° |
| 2026-05-06 15:57 | 51.66409 | -0.56026 | 7992 ft | 246 kts | 232° |
| 2026-05-06 15:58 | 51.65346 | -0.58219 | 7993 ft | 249 kts | 236° |
| 2026-05-06 15:58 | 51.64325 | -0.60459 | 7990 ft | 247 kts | 236° |
| 2026-05-06 15:58 | 51.63295 | -0.62677 | 7991 ft | 248 kts | 235° |
| 2026-05-06 15:58 | 51.62268 | -0.64896 | 7991 ft | 247 kts | 235° |
| 2026-05-06 15:59 | 51.61232 | -0.67104 | 7992 ft | 248 kts | 236° |
| 2026-05-06 15:59 | 51.60354 | -0.69354 | 7989 ft | 233 kts | 250° |
| 2026-05-06 15:59 | 51.59748 | -0.71693 | 7935 ft | 222 kts | 251° |
| 2026-05-06 15:59 | 51.59180 | -0.73997 | 7620 ft | 222 kts | 251° |
| 2026-05-06 16:00 | 51.58622 | -0.76332 | 7248 ft | 221 kts | 251° |
| 2026-05-06 16:00 | 51.58075 | -0.78554 | 7152 ft | 206 kts | 250° |
| 2026-05-06 16:00 | 51.57560 | -0.80640 | 6953 ft | 198 kts | 251° |
| 2026-05-06 16:00 | 51.57054 | -0.82724 | 6559 ft | 201 kts | 251° |
| 2026-05-06 16:01 | 51.56517 | -0.84810 | 6106 ft | 203 kts | 251° |
| 2026-05-06 16:01 | 51.55975 | -0.86924 | 5637 ft | 206 kts | 251° |
| 2026-05-06 16:01 | 51.55437 | -0.89076 | 5234 ft | 206 kts | 250° |
| 2026-05-06 16:01 | 51.54927 | -0.91114 | 5110 ft | 193 kts | 251° |
| 2026-05-06 16:02 | 51.54228 | -0.92968 | 5023 ft | 199 kts | 221° |
| 2026-05-06 16:02 | 51.52951 | -0.93897 | 4864 ft | 204 kts | 184° |
| 2026-05-06 16:02 | 51.51621 | -0.93463 | 4633 ft | 196 kts | 146° |
| 2026-05-06 16:02 | 51.50496 | -0.92185 | 4469 ft | 199 kts | 141° |
| 2026-05-06 16:03 | 51.49380 | -0.90835 | 4341 ft | 202 kts | 140° |
| 2026-05-06 16:03 | 51.48335 | -0.89386 | 4296 ft | 193 kts | 126° |
| 2026-05-06 16:03 | 51.47734 | -0.87485 | 4190 ft | 192 kts | 101° |
| 2026-05-06 16:03 | 51.47534 | -0.85376 | 4144 ft | 190 kts | 89° |
| 2026-05-06 16:04 | 51.47503 | -0.83278 | 4090 ft | 188 kts | 85° |
| 2026-05-06 16:04 | 51.47518 | -0.81165 | 4041 ft | 188 kts | 85° |
| 2026-05-06 16:04 | 51.47531 | -0.79067 | 3902 ft | 188 kts | 86° |
| 2026-05-06 16:04 | 51.47544 | -0.76976 | 3645 ft | 185 kts | 85° |
| 2026-05-06 16:05 | 51.47558 | -0.74921 | 3391 ft | 184 kts | 85° |
| 2026-05-06 16:05 | 51.47571 | -0.72875 | 3148 ft | 185 kts | 85° |
| 2026-05-06 16:05 | 51.47585 | -0.70828 | 2890 ft | 181 kts | 85° |
| 2026-05-06 16:05 | 51.47597 | -0.68820 | 2647 ft | 178 kts | 85° |
| 2026-05-06 16:06 | 51.47609 | -0.66892 | 2404 ft | 165 kts | 85° |
| 2026-05-06 16:06 | 51.47621 | -0.65088 | 2190 ft | 163 kts | 84° |
| 2026-05-06 16:06 | 51.47633 | -0.63283 | 1963 ft | 159 kts | 85° |
| 2026-05-06 16:06 | 51.47646 | -0.61496 | 1752 ft | 163 kts | 85° |
| 2026-05-06 16:07 | 51.47658 | -0.59671 | 1517 ft | 161 kts | 86° |
| 2026-05-06 16:07 | 51.47669 | -0.57899 | 1307 ft | 159 kts | 85° |
| 2026-05-06 16:07 | 51.47678 | -0.56161 | 1090 ft | 149 kts | 84° |
| 2026-05-06 16:07 | 51.47686 | -0.54601 | 876 ft | 132 kts | 84° |
| 2026-05-06 16:08 | 51.47701 | -0.53114 | 692 ft | 134 kts | 84° |
| 2026-05-06 16:08 | 51.47718 | -0.51624 | 469 ft | 135 kts | 84° |
| 2026-05-06 16:08 | 51.47732 | -0.50143 | 302 ft | 132 kts | 84° |
| 2026-05-06 16:08 | 51.47744 | -0.48686 | 146 ft | 131 kts | 84° |
| 2026-05-06 16:09 | 51.47756 | -0.47270 | 91 ft | 112 kts | 86° |
| 2026-05-06 16:09 | 51.47760 | -0.46346 | 94 ft | 58 kts | 90° |
| 2026-05-06 16:09 | 51.47759 | -0.45913 | 87 ft | 29 kts | 90° |
| 2026-05-06 16:09 | 51.47760 | -0.45619 | 89 ft | 16 kts | 89° |
| 2026-05-06 16:10 | 51.47673 | -0.45466 | 88 ft | 23 kts | 181° |
| 2026-05-06 16:10 | 51.47599 | -0.45579 | 89 ft | 17 kts | 270° |
| 2026-05-06 16:10 | 51.47592 | -0.45756 | 92 ft | 1 kts | 237° |
| 2026-05-06 16:10 | 51.47578 | -0.45761 | 90 ft | 7 kts | 181° |
| 2026-05-06 16:11 | 51.47526 | -0.45778 | 91 ft | 0 kts | 216° |
| 2026-05-06 16:11 | 51.47521 | -0.45791 | 91 ft | 3 kts | 241° |
| 2026-05-06 16:11 | 51.47517 | -0.45846 | 88 ft | 7 kts | 268° |
| 2026-05-06 16:11 | 51.47515 | -0.45936 | 89 ft | 9 kts | 268° |
| 2026-05-06 16:12 | 51.47514 | -0.46042 | 91 ft | 11 kts | 271° |
| 2026-05-06 16:12 | 51.47517 | -0.46232 | 89 ft | 21 kts | 271° |
| 2026-05-06 16:12 | 51.47513 | -0.46486 | 91 ft | 23 kts | 268° |
| 2026-05-06 16:12 | 51.47505 | -0.46736 | 92 ft | 23 kts | 256° |
| 2026-05-06 16:13 | 51.47489 | -0.46999 | 90 ft | 24 kts | 267° |
| 2026-05-06 16:13 | 51.47493 | -0.47275 | 89 ft | 26 kts | 266° |
| 2026-05-06 16:13 | 51.47491 | -0.47570 | 91 ft | 27 kts | 270° |
| 2026-05-06 16:13 | 51.47487 | -0.47883 | 91 ft | 29 kts | 270° |
| 2026-05-06 16:14 | 51.47490 | -0.48191 | 89 ft | 27 kts | 271° |
| 2026-05-06 16:14 | 51.47488 | -0.48291 | 89 ft | 8 kts | 268° |
| 2026-05-06 16:14 | 51.47486 | -0.48397 | 91 ft | 11 kts | 269° |
| 2026-05-06 16:14 | 51.47484 | -0.48523 | 94 ft | 12 kts | 269° |
| 2026-05-06 16:15 | 51.47487 | -0.48681 | 91 ft | 16 kts | 269° |
| 2026-05-06 16:15 | 51.47481 | -0.48864 | 93 ft | 12 kts | 259° |
| 2026-05-06 16:15 | 51.47430 | -0.48890 | 89 ft | 6 kts | 178° |
| 2026-05-06 16:15 | 51.47405 | -0.48890 | 91 ft | 0 kts | 181° |